Cirencester, United Kingdom
Current Conditions -  °F | °C
As of 6:43 AM on Thursday 23 Oct 2014 (Local Time) from EGVA Reporting Station
Overcast Overcast  
Wind Chill: 11°   Ceiling: 1600
Heat Index: 11°   Visibility: 6mi
Dew Point:   Wind: 15mph
Humidity: 88%   Direction: 240°WSW
Pressure: 30.11"   Gusts: NA
Location:  51.72°N, 1.97°W
Report Text: EGVA 230543Z AUTO 24013KT 9999 BKN016 OVC021 11/09 A3011 RMK AO2
Loading
Personal Weather Stations






























Interactive Weather Map
Tropical Storm Tracking
New forecast layout! Learn more

10-Day Weather Forecast

Advertisements
Track Severe Weather on mobile